Mathilde Maersk — OUJS2 — position and weather

sailwx.info

Track history (hours):
 
Tides and Currents Weather Stations Pressure Air Temp Water Temp Dewpoint Dewpoint Depression Visibility Wind Speed Wind Dir Waves Ship Positions

Mathilde Maersk

Last reported at 2014-Jul-21 02:25 UTC. Time now 2014-Jul-30 15:11 UTC.
Position N 01°11' E 103°48'.
Warning: this ship's position is 9 days out of date.

Length 367 m; draft 12.2 m.

Type: Ship (hazmat cat B). MMSI: 220597990.

Date/timePositionNaut miles runAvg speedWind from/ knotsBaromVisibWave heightAir tempDewpointWater temp
2014-Jul-21 02:25N 01°11' E 103°48'1517.1
2014-Jul-21 01:33N 01°16' E 104°02'  
2014-Jul-17 14:07N 22°34' E 114°17'1 1.3
2014-Jul-17 13:26N 22°34' E 114°16'0 0.0
2014-Jul-17 12:32N 22°34' E 114°16'0 0.0
2014-Jul-17 10:08N 22°34' E 114°16'0 0.0
2014-Jul-17 09:20N 22°34' E 114°16'0 0.0
2014-Jul-17 08:26N 22°34' E 114°16'0 0.0
2014-Jul-17 07:32N 22°34' E 114°16'0 0.0
2014-Jul-17 06:32N 22°34' E 114°16'0 0.0
2014-Jul-17 02:14N 22°34' E 114°16'0 0.0
2014-Jul-17 01:32N 22°34' E 114°16'0 0.0
2014-Jul-17 00:14N 22°34' E 114°16'0 0.0
2014-Jul-16 22:26N 22°34' E 114°16'0 0.0
2014-Jul-16 21:32N 22°34' E 114°16'0 0.1
2014-Jul-16 18:32N 22°34' E 114°16'35 6.8
2014-Jul-16 13:24N 22°06' E 113°54'8 9.6
2014-Jul-16 12:33N 22°12' E 113°49'1212.3
2014-Jul-16 11:33N 22°24' E 113°46'1413.9
2014-Jul-16 10:33N 22°37' E 113°42'0 0.0
2014-Jul-16 01:04N 22°37' E 113°42'712.1
2014-Jul-16 00:27N 22°30' E 113°45'1112.6
2014-Jul-15 23:33N 22°20' E 113°48'9 9.1
2014-Jul-15 22:33N 22°11' E 113°50'7 6.9
2014-Jul-15 21:30N 22°07' E 113°57'17315.7
2014-Jul-15 10:29N 22°53' E 116°57'1617.5
2014-Jul-15 09:33N 23°03' E 117°11'2417.8
2014-Jul-15 08:11N 23°19' E 117°31'4717.7
2014-Jul-15 05:33N 23°47' E 118°12'1817.9
2014-Jul-15 04:33N 23°57' E 118°28'1918.8
2014-Jul-15 03:33N 24°09' E 118°44'2220.2
2014-Jul-15 02:29N 24°22' E 119°03'1617.4
2014-Jul-15 01:33N 24°30' E 119°18'39516.1
2014-Jul-14 01:03N 30°14' E 122°58'816.3
2014-Jul-14 00:33N 30°20' E 122°51'1717.1
2014-Jul-13 23:34N 30°30' E 122°34'1616.4
2014-Jul-13 22:34N 30°33' E 122°16'1212.0
2014-Jul-13 21:34N 30°38' E 122°03'0 0.0
2014-Jul-13 10:33N 30°38' E 122°03'2 1.5
2014-Jul-13 09:33N 30°37' E 122°04'5 5.4
2014-Jul-13 08:33N 30°34' E 122°10'9 9.5
2014-Jul-13 07:33N 30°33' E 122°21'1 1.3
2014-Jul-13 06:33N 30°33' E 122°22'5 4.6
2014-Jul-13 05:34N 30°31' E 122°27'6 6.3
2014-Jul-13 04:34N 30°30' E 122°34'7 7.3
2014-Jul-13 03:34N 30°26' E 122°41'4 3.5
2014-Jul-13 02:34N 30°24' E 122°44'1 1.2
2014-Jul-13 01:34N 30°23' E 122°46'2 1.7
2014-Jul-13 00:34N 30°22' E 122°47'4 4.5
2014-Jul-12 23:34N 30°19' E 122°51'11 3.5
2014-Jul-12 20:19N 30°11' E 123°01'2 2.6
2014-Jul-12 19:22N 30°10' E 123°03'3 3.0
2014-Jul-12 18:30N 30°08' E 123°05'3 3.4
2014-Jul-12 17:34N 30°05' E 123°07'4 4.4
2014-Jul-12 16:33N 30°01' E 123°06'25 4.8
2014-Jul-12 11:24N 29°48' E 122°41'5 5.5
2014-Jul-12 10:33N 29°47' E 122°36'2 2.3
2014-Jul-12 09:33N 29°46' E 122°33'0 0.1
2014-Jul-12 08:34N 29°46' E 122°33'8 7.8
2014-Jul-12 07:33N 29°44' E 122°25'1010.5
2014-Jul-12 06:33N 29°49' E 122°14'1312.9
2014-Jul-12 05:33N 29°56' E 122°01'10 9.5
2014-Jul-12 04:31N 29°57' E 121°50'0 0.2
2014-Jul-12 03:28N 29°57' E 121°50'0 0.0
2014-Jul-12 02:31N 29°57' E 121°50'0 0.0
2014-Jul-12 01:31N 29°57' E 121°50'0 0.0
2014-Jul-12 00:28N 29°57' E 121°50'0 0.0
2014-Jul-11 23:25N 29°57' E 121°50'0 0.0
2014-Jul-11 22:31N 29°57' E 121°50'0 0.0
2014-Jul-11 21:31N 29°57' E 121°50'0 0.0
2014-Jul-11 20:31N 29°57' E 121°50'0 0.0
2014-Jul-11 19:31N 29°57' E 121°50'0 0.0
2014-Jul-11 18:31N 29°57' E 121°50'0 0.0
2014-Jul-11 17:31N 29°57' E 121°50'0 0.0
2014-Jul-11 16:31N 29°57' E 121°50'0 0.0
2014-Jul-11 15:31N 29°57' E 121°50'0 0.0
2014-Jul-11 14:31N 29°57' E 121°50'1 0.6
2014-Jul-11 13:33N 29°57' E 121°50'3 3.1
2014-Jul-11 12:33N 29°58' E 121°53'1313.0
2014-Jul-11 11:33N 29°56' E 122°08'1212.5
2014-Jul-11 10:33N 29°46' E 122°17'4 3.3
2014-Jul-11 09:29N 29°47' E 122°21'0 0.2
2014-Jul-11 08:29N 29°47' E 122°22'2 2.0
2014-Jul-11 07:33N 29°45' E 122°23'4 3.8
2014-Jul-11 06:33N 29°45' E 122°27'3 3.3
2014-Jul-11 05:33N 29°45' E 122°31'4 3.5
2014-Jul-11 04:33N 29°46' E 122°35'4 3.9
2014-Jul-11 03:33N 29°48' E 122°39'4 4.0
2014-Jul-11 02:33N 29°51' E 122°42'  
Track history (hours):
 
Tides and Currents Weather Stations Pressure Air Temp Water Temp Dewpoint Dewpoint Depression Visibility Wind Speed Wind Dir Waves Ship Positions

Mathilde Maersk

Last reported at 2014-Jul-21 02:25 UTC. Time now 2014-Jul-30 15:11 UTC.
Position N 01°11' E 103°48'.
Warning: this ship's position is 9 days out of date.

Length 367 m; draft 12.2 m.

Type: Ship (hazmat cat B). MMSI: 220597990.

Date/timePositionNaut miles runAvg speedWind from/ knotsBaromVisibWave heightAir tempDewpointWater temp
2014-Jul-21 02:25N 01°11' E 103°48'1517.1
2014-Jul-21 01:33N 01°16' E 104°02'  
2014-Jul-17 14:07N 22°34' E 114°17'1 1.3
2014-Jul-17 13:26N 22°34' E 114°16'0 0.0
2014-Jul-17 12:32N 22°34' E 114°16'0 0.0
2014-Jul-17 10:08N 22°34' E 114°16'0 0.0
2014-Jul-17 09:20N 22°34' E 114°16'0 0.0
2014-Jul-17 08:26N 22°34' E 114°16'0 0.0
2014-Jul-17 07:32N 22°34' E 114°16'0 0.0
2014-Jul-17 06:32N 22°34' E 114°16'0 0.0
2014-Jul-17 02:14N 22°34' E 114°16'0 0.0
2014-Jul-17 01:32N 22°34' E 114°16'0 0.0
2014-Jul-17 00:14N 22°34' E 114°16'0 0.0
2014-Jul-16 22:26N 22°34' E 114°16'0 0.0
2014-Jul-16 21:32N 22°34' E 114°16'0 0.1
2014-Jul-16 18:32N 22°34' E 114°16'35 6.8
2014-Jul-16 13:24N 22°06' E 113°54'8 9.6
2014-Jul-16 12:33N 22°12' E 113°49'1212.3
2014-Jul-16 11:33N 22°24' E 113°46'1413.9
2014-Jul-16 10:33N 22°37' E 113°42'0 0.0
2014-Jul-16 01:04N 22°37' E 113°42'712.1
2014-Jul-16 00:27N 22°30' E 113°45'1112.6
2014-Jul-15 23:33N 22°20' E 113°48'9 9.1
2014-Jul-15 22:33N 22°11' E 113°50'7 6.9
2014-Jul-15 21:30N 22°07' E 113°57'17315.7
2014-Jul-15 10:29N 22°53' E 116°57'1617.5
2014-Jul-15 09:33N 23°03' E 117°11'2417.8
2014-Jul-15 08:11N 23°19' E 117°31'4717.7
2014-Jul-15 05:33N 23°47' E 118°12'1817.9
2014-Jul-15 04:33N 23°57' E 118°28'1918.8
2014-Jul-15 03:33N 24°09' E 118°44'2220.2
2014-Jul-15 02:29N 24°22' E 119°03'1617.4
2014-Jul-15 01:33N 24°30' E 119°18'39516.1
2014-Jul-14 01:03N 30°14' E 122°58'816.3
2014-Jul-14 00:33N 30°20' E 122°51'1717.1
2014-Jul-13 23:34N 30°30' E 122°34'1616.4
2014-Jul-13 22:34N 30°33' E 122°16'1212.0
2014-Jul-13 21:34N 30°38' E 122°03'0 0.0
2014-Jul-13 10:33N 30°38' E 122°03'2 1.5
2014-Jul-13 09:33N 30°37' E 122°04'5 5.4
2014-Jul-13 08:33N 30°34' E 122°10'9 9.5
2014-Jul-13 07:33N 30°33' E 122°21'1 1.3
2014-Jul-13 06:33N 30°33' E 122°22'5 4.6
2014-Jul-13 05:34N 30°31' E 122°27'6 6.3
2014-Jul-13 04:34N 30°30' E 122°34'7 7.3
2014-Jul-13 03:34N 30°26' E 122°41'4 3.5
2014-Jul-13 02:34N 30°24' E 122°44'1 1.2
2014-Jul-13 01:34N 30°23' E 122°46'2 1.7
2014-Jul-13 00:34N 30°22' E 122°47'4 4.5
2014-Jul-12 23:34N 30°19' E 122°51'11 3.5
2014-Jul-12 20:19N 30°11' E 123°01'2 2.6
2014-Jul-12 19:22N 30°10' E 123°03'3 3.0
2014-Jul-12 18:30N 30°08' E 123°05'3 3.4
2014-Jul-12 17:34N 30°05' E 123°07'4 4.4
2014-Jul-12 16:33N 30°01' E 123°06'25 4.8
2014-Jul-12 11:24N 29°48' E 122°41'5 5.5
2014-Jul-12 10:33N 29°47' E 122°36'2 2.3
2014-Jul-12 09:33N 29°46' E 122°33'0 0.1
2014-Jul-12 08:34N 29°46' E 122°33'8 7.8
2014-Jul-12 07:33N 29°44' E 122°25'1010.5
2014-Jul-12 06:33N 29°49' E 122°14'1312.9
2014-Jul-12 05:33N 29°56' E 122°01'10 9.5
2014-Jul-12 04:31N 29°57' E 121°50'0 0.2
2014-Jul-12 03:28N 29°57' E 121°50'0 0.0
2014-Jul-12 02:31N 29°57' E 121°50'0 0.0
2014-Jul-12 01:31N 29°57' E 121°50'0 0.0
2014-Jul-12 00:28N 29°57' E 121°50'0 0.0
2014-Jul-11 23:25N 29°57' E 121°50'0 0.0
2014-Jul-11 22:31N 29°57' E 121°50'0 0.0
2014-Jul-11 21:31N 29°57' E 121°50'0 0.0
2014-Jul-11 20:31N 29°57' E 121°50'0 0.0
2014-Jul-11 19:31N 29°57' E 121°50'0 0.0
2014-Jul-11 18:31N 29°57' E 121°50'0 0.0
2014-Jul-11 17:31N 29°57' E 121°50'0 0.0
2014-Jul-11 16:31N 29°57' E 121°50'0 0.0
2014-Jul-11 15:31N 29°57' E 121°50'0 0.0
2014-Jul-11 14:31N 29°57' E 121°50'1 0.6
2014-Jul-11 13:33N 29°57' E 121°50'3 3.1
2014-Jul-11 12:33N 29°58' E 121°53'1313.0
2014-Jul-11 11:33N 29°56' E 122°08'1212.5
2014-Jul-11 10:33N 29°46' E 122°17'4 3.3
2014-Jul-11 09:29N 29°47' E 122°21'0 0.2
2014-Jul-11 08:29N 29°47' E 122°22'2 2.0
2014-Jul-11 07:33N 29°45' E 122°23'4 3.8
2014-Jul-11 06:33N 29°45' E 122°27'3 3.3
2014-Jul-11 05:33N 29°45' E 122°31'4 3.5
2014-Jul-11 04:33N 29°46' E 122°35'4 3.9
2014-Jul-11 03:33N 29°48' E 122°39'4 4.0
2014-Jul-11 02:33N 29°51' E 122°42'  

Dump ship's entire track history